sensor_id;sensor_type;location;lat;lon;timestamp;P1;durP1;ratioP1;P2;durP2;ratioP2
51374;SDS011;37465;52.738;4.752;2023-01-16T00:00:59;8.23;;;5.47;;
51374;SDS011;37465;52.738;4.752;2023-01-16T00:03:27;9.15;;;5.60;;
51374;SDS011;37465;52.738;4.752;2023-01-16T00:05:55;10.05;;;5.65;;
51374;SDS011;37465;52.738;4.752;2023-01-16T00:08:23;12.57;;;5.65;;
51374;SDS011;37465;52.738;4.752;2023-01-16T00:10:50;10.15;;;6.00;;
51374;SDS011;37465;52.738;4.752;2023-01-16T00:13:19;11.25;;;6.03;;
51374;SDS011;37465;52.738;4.752;2023-01-16T00:15:48;11.38;;;5.57;;
51374;SDS011;37465;52.738;4.752;2023-01-16T00:18:16;11.37;;;6.13;;
51374;SDS011;37465;52.738;4.752;2023-01-16T00:20:45;9.40;;;6.47;;
51374;SDS011;37465;52.738;4.752;2023-01-16T00:25:41;12.10;;;6.75;;
51374;SDS011;37465;52.738;4.752;2023-01-16T00:28:10;12.38;;;6.82;;
51374;SDS011;37465;52.738;4.752;2023-01-16T00:30:40;13.00;;;8.13;;
51374;SDS011;37465;52.738;4.752;2023-01-16T00:33:09;14.13;;;8.95;;
51374;SDS011;37465;52.738;4.752;2023-01-16T00:35:37;17.27;;;8.75;;
51374;SDS011;37465;52.738;4.752;2023-01-16T00:38:04;12.95;;;8.82;;
51374;SDS011;37465;52.738;4.752;2023-01-16T00:40:32;15.48;;;8.50;;
51374;SDS011;37465;52.738;4.752;2023-01-16T00:43:00;16.15;;;9.73;;
51374;SDS011;37465;52.738;4.752;2023-01-16T00:45:28;15.82;;;10.07;;
51374;SDS011;37465;52.738;4.752;2023-01-16T00:47:57;17.92;;;10.07;;
51374;SDS011;37465;52.738;4.752;2023-01-16T00:50:25;20.25;;;10.80;;
51374;SDS011;37465;52.738;4.752;2023-01-16T00:52:52;17.15;;;10.43;;
51374;SDS011;37465;52.738;4.752;2023-01-16T00:55:20;16.55;;;10.48;;
51374;SDS011;37465;52.738;4.752;2023-01-16T00:57:48;17.92;;;10.73;;
51374;SDS011;37465;52.738;4.752;2023-01-16T01:00:16;17.52;;;10.43;;
51374;SDS011;37465;52.738;4.752;2023-01-16T01:02:45;19.77;;;11.30;;
51374;SDS011;37465;52.738;4.752;2023-01-16T01:05:14;18.08;;;10.82;;
51374;SDS011;37465;52.738;4.752;2023-01-16T01:07:42;19.70;;;11.15;;
51374;SDS011;37465;52.738;4.752;2023-01-16T01:10:10;16.52;;;10.77;;
51374;SDS011;37465;52.738;4.752;2023-01-16T01:12:38;17.85;;;11.13;;
51374;SDS011;37465;52.738;4.752;2023-01-16T01:15:06;19.20;;;10.77;;
51374;SDS011;37465;52.738;4.752;2023-01-16T01:17:34;19.60;;;10.82;;
51374;SDS011;37465;52.738;4.752;2023-01-16T01:20:02;21.33;;;11.10;;
51374;SDS011;37465;52.738;4.752;2023-01-16T01:22:31;20.10;;;11.25;;
51374;SDS011;37465;52.738;4.752;2023-01-16T01:24:59;19.35;;;10.85;;
51374;SDS011;37465;52.738;4.752;2023-01-16T01:27:26;20.90;;;9.75;;
51374;SDS011;37465;52.738;4.752;2023-01-16T01:29:54;21.00;;;10.15;;
51374;SDS011;37465;52.738;4.752;2023-01-16T01:32:21;17.98;;;10.93;;
51374;SDS011;37465;52.738;4.752;2023-01-16T01:34:49;17.45;;;10.02;;
51374;SDS011;37465;52.738;4.752;2023-01-16T01:37:17;22.75;;;11.15;;
51374;SDS011;37465;52.738;4.752;2023-01-16T01:39:46;18.65;;;10.13;;
51374;SDS011;37465;52.738;4.752;2023-01-16T01:42:13;17.63;;;9.55;;
51374;SDS011;37465;52.738;4.752;2023-01-16T01:45:00;14.07;;;7.45;;
51374;SDS011;37465;52.738;4.752;2023-01-16T01:47:29;11.82;;;6.55;;
51374;SDS011;37465;52.738;4.752;2023-01-16T01:50:00;11.35;;;5.88;;
51374;SDS011;37465;52.738;4.752;2023-01-16T01:52:30;10.77;;;5.35;;
51374;SDS011;37465;52.738;4.752;2023-01-16T01:55:02;16.80;;;6.50;;
51374;SDS011;37465;52.738;4.752;2023-01-16T01:57:33;13.82;;;7.35;;
51374;SDS011;37465;52.738;4.752;2023-01-16T02:00:03;14.65;;;7.45;;
51374;SDS011;37465;52.738;4.752;2023-01-16T02:02:36;21.52;;;9.32;;
51374;SDS011;37465;52.738;4.752;2023-01-16T02:05:06;25.02;;;10.95;;
51374;SDS011;37465;52.738;4.752;2023-01-16T02:07:35;21.35;;;10.98;;
51374;SDS011;37465;52.738;4.752;2023-01-16T02:10:08;20.05;;;10.45;;
51374;SDS011;37465;52.738;4.752;2023-01-16T02:12:38;23.48;;;12.63;;
51374;SDS011;37465;52.738;4.752;2023-01-16T02:15:06;25.38;;;13.98;;
51374;SDS011;37465;52.738;4.752;2023-01-16T02:17:34;22.85;;;13.20;;
51374;SDS011;37465;52.738;4.752;2023-01-16T02:20:28;22.55;;;12.85;;
51374;SDS011;37465;52.738;4.752;2023-01-16T02:23:04;26.85;;;13.98;;
51374;SDS011;37465;52.738;4.752;2023-01-16T02:28:59;28.25;;;14.68;;
51374;SDS011;37465;52.738;4.752;2023-01-16T02:31:50;28.65;;;15.15;;
51374;SDS011;37465;52.738;4.752;2023-01-16T02:34:26;30.35;;;17.15;;
51374;SDS011;37465;52.738;4.752;2023-01-16T02:37:04;36.53;;;19.25;;
51374;SDS011;37465;52.738;4.752;2023-01-16T02:39:41;38.05;;;20.88;;
51374;SDS011;37465;52.738;4.752;2023-01-16T02:42:13;38.38;;;20.90;;
51374;SDS011;37465;52.738;4.752;2023-01-16T02:44:47;43.03;;;21.98;;
51374;SDS011;37465;52.738;4.752;2023-01-16T02:47:20;39.50;;;21.38;;
51374;SDS011;37465;52.738;4.752;2023-01-16T02:49:53;41.75;;;21.80;;
51374;SDS011;37465;52.738;4.752;2023-01-16T02:52:30;51.15;;;24.85;;
51374;SDS011;37465;52.738;4.752;2023-01-16T02:55:01;49.47;;;24.08;;
51374;SDS011;37465;52.738;4.752;2023-01-16T02:57:31;43.80;;;24.42;;
51374;SDS011;37465;52.738;4.752;2023-01-16T03:00:02;37.67;;;21.98;;
51374;SDS011;37465;52.738;4.752;2023-01-16T03:02:31;45.78;;;23.73;;
51374;SDS011;37465;52.738;4.752;2023-01-16T03:04:59;37.42;;;22.02;;
51374;SDS011;37465;52.738;4.752;2023-01-16T03:07:32;40.55;;;22.60;;
51374;SDS011;37465;52.738;4.752;2023-01-16T03:10:11;38.00;;;20.83;;
51374;SDS011;37465;52.738;4.752;2023-01-16T03:12:48;36.47;;;20.90;;
51374;SDS011;37465;52.738;4.752;2023-01-16T03:15:24;36.13;;;19.23;;
51374;SDS011;37465;52.738;4.752;2023-01-16T03:17:59;38.83;;;18.35;;
51374;SDS011;37465;52.738;4.752;2023-01-16T03:20:33;35.80;;;19.13;;
51374;SDS011;37465;52.738;4.752;2023-01-16T03:23:08;34.45;;;18.75;;
51374;SDS011;37465;52.738;4.752;2023-01-16T03:25:38;34.45;;;18.45;;
51374;SDS011;37465;52.738;4.752;2023-01-16T03:28:11;33.40;;;17.80;;
51374;SDS011;37465;52.738;4.752;2023-01-16T03:30:45;31.73;;;17.05;;
51374;SDS011;37465;52.738;4.752;2023-01-16T03:33:19;35.95;;;18.42;;
51374;SDS011;37465;52.738;4.752;2023-01-16T03:35:50;32.72;;;18.88;;
51374;SDS011;37465;52.738;4.752;2023-01-16T03:38:21;40.80;;;18.88;;
51374;SDS011;37465;52.738;4.752;2023-01-16T03:40:49;39.25;;;19.60;;
51374;SDS011;37465;52.738;4.752;2023-01-16T03:43:20;34.35;;;18.83;;
51374;SDS011;37465;52.738;4.752;2023-01-16T03:45:51;31.85;;;18.25;;
51374;SDS011;37465;52.738;4.752;2023-01-16T03:48:24;34.55;;;17.58;;
51374;SDS011;37465;52.738;4.752;2023-01-16T03:50:57;33.30;;;18.42;;
51374;SDS011;37465;52.738;4.752;2023-01-16T03:53:28;38.50;;;21.20;;
51374;SDS011;37465;52.738;4.752;2023-01-16T03:55:59;35.45;;;17.83;;
51374;SDS011;37465;52.738;4.752;2023-01-16T04:01:18;32.35;;;15.70;;
51374;SDS011;37465;52.738;4.752;2023-01-16T04:03:53;36.28;;;18.20;;
51374;SDS011;37465;52.738;4.752;2023-01-16T04:06:25;33.95;;;16.90;;
51374;SDS011;37465;52.738;4.752;2023-01-16T04:08:57;32.28;;;17.55;;
51374;SDS011;37465;52.738;4.752;2023-01-16T04:11:26;33.33;;;16.98;;
51374;SDS011;37465;52.738;4.752;2023-01-16T04:13:54;35.60;;;17.60;;
51374;SDS011;37465;52.738;4.752;2023-01-16T04:16:23;36.47;;;18.30;;
51374;SDS011;37465;52.738;4.752;2023-01-16T04:18:52;41.38;;;18.33;;
51374;SDS011;37465;52.738;4.752;2023-01-16T04:21:24;33.38;;;18.73;;
51374;SDS011;37465;52.738;4.752;2023-01-16T04:23:53;42.90;;;18.65;;
51374;SDS011;37465;52.738;4.752;2023-01-16T04:26:22;36.72;;;17.42;;
51374;SDS011;37465;52.738;4.752;2023-01-16T04:28:49;50.97;;;20.40;;
51374;SDS011;37465;52.738;4.752;2023-01-16T04:31:22;42.05;;;20.05;;
51374;SDS011;37465;52.738;4.752;2023-01-16T04:33:50;51.53;;;22.05;;
51374;SDS011;37465;52.738;4.752;2023-01-16T04:36:20;51.60;;;21.77;;
51374;SDS011;37465;52.738;4.752;2023-01-16T04:38:48;45.00;;;21.67;;
51374;SDS011;37465;52.738;4.752;2023-01-16T04:41:16;44.15;;;20.25;;
51374;SDS011;37465;52.738;4.752;2023-01-16T04:44:02;41.90;;;19.90;;
51374;SDS011;37465;52.738;4.752;2023-01-16T04:46:30;43.23;;;21.67;;
51374;SDS011;37465;52.738;4.752;2023-01-16T04:48:58;49.60;;;21.23;;
51374;SDS011;37465;52.738;4.752;2023-01-16T04:51:27;45.20;;;22.02;;
51374;SDS011;37465;52.738;4.752;2023-01-16T04:53:56;46.22;;;20.95;;
51374;SDS011;37465;52.738;4.752;2023-01-16T04:56:24;36.10;;;19.05;;
51374;SDS011;37465;52.738;4.752;2023-01-16T04:58:51;43.78;;;21.67;;
51374;SDS011;37465;52.738;4.752;2023-01-16T05:01:19;52.13;;;22.50;;
51374;SDS011;37465;52.738;4.752;2023-01-16T05:03:47;47.78;;;21.25;;
51374;SDS011;37465;52.738;4.752;2023-01-16T05:06:15;53.22;;;22.05;;
51374;SDS011;37465;52.738;4.752;2023-01-16T05:08:44;43.22;;;21.48;;
51374;SDS011;37465;52.738;4.752;2023-01-16T05:11:12;37.50;;;20.00;;
51374;SDS011;37465;52.738;4.752;2023-01-16T05:13:39;47.83;;;22.92;;
51374;SDS011;37465;52.738;4.752;2023-01-16T05:16:07;45.17;;;21.23;;
51374;SDS011;37465;52.738;4.752;2023-01-16T05:18:34;47.42;;;21.38;;
51374;SDS011;37465;52.738;4.752;2023-01-16T05:21:02;48.88;;;22.08;;
51374;SDS011;37465;52.738;4.752;2023-01-16T05:23:31;42.92;;;20.92;;
51374;SDS011;37465;52.738;4.752;2023-01-16T05:26:00;50.72;;;20.67;;
51374;SDS011;37465;52.738;4.752;2023-01-16T05:28:28;44.00;;;21.02;;
51374;SDS011;37465;52.738;4.752;2023-01-16T05:30:56;45.55;;;20.52;;
51374;SDS011;37465;52.738;4.752;2023-01-16T05:33:24;46.83;;;20.63;;
51374;SDS011;37465;52.738;4.752;2023-01-16T05:35:51;42.40;;;20.02;;
51374;SDS011;37465;52.738;4.752;2023-01-16T05:38:20;44.42;;;20.33;;
51374;SDS011;37465;52.738;4.752;2023-01-16T05:40:47;35.10;;;17.63;;
51374;SDS011;37465;52.738;4.752;2023-01-16T05:43:16;38.20;;;16.80;;
51374;SDS011;37465;52.738;4.752;2023-01-16T05:45:44;36.20;;;16.05;;
51374;SDS011;37465;52.738;4.752;2023-01-16T05:48:12;33.70;;;15.75;;
51374;SDS011;37465;52.738;4.752;2023-01-16T05:50:39;30.38;;;16.13;;
51374;SDS011;37465;52.738;4.752;2023-01-16T05:53:07;36.28;;;15.00;;
51374;SDS011;37465;52.738;4.752;2023-01-16T05:55:37;23.15;;;12.52;;
51374;SDS011;37465;52.738;4.752;2023-01-16T05:58:07;27.58;;;12.43;;
51374;SDS011;37465;52.738;4.752;2023-01-16T06:00:37;25.95;;;12.55;;
51374;SDS011;37465;52.738;4.752;2023-01-16T06:03:05;30.83;;;12.23;;
51374;SDS011;37465;52.738;4.752;2023-01-16T06:05:33;29.35;;;12.13;;
51374;SDS011;37465;52.738;4.752;2023-01-16T06:08:01;28.02;;;12.95;;
51374;SDS011;37465;52.738;4.752;2023-01-16T06:10:30;26.17;;;11.82;;
51374;SDS011;37465;52.738;4.752;2023-01-16T06:12:59;29.35;;;12.18;;
51374;SDS011;37465;52.738;4.752;2023-01-16T06:15:27;24.47;;;11.00;;
51374;SDS011;37465;52.738;4.752;2023-01-16T06:17:56;23.90;;;10.52;;
51374;SDS011;37465;52.738;4.752;2023-01-16T06:20:23;23.33;;;10.77;;
51374;SDS011;37465;52.738;4.752;2023-01-16T06:22:51;23.48;;;10.25;;
51374;SDS011;37465;52.738;4.752;2023-01-16T06:25:19;28.27;;;9.70;;
51374;SDS011;37465;52.738;4.752;2023-01-16T06:27:47;20.10;;;8.27;;
51374;SDS011;37465;52.738;4.752;2023-01-16T06:30:15;23.00;;;7.97;;
51374;SDS011;37465;52.738;4.752;2023-01-16T06:32:43;18.60;;;7.95;;
51374;SDS011;37465;52.738;4.752;2023-01-16T06:35:12;24.95;;;7.88;;
51374;SDS011;37465;52.738;4.752;2023-01-16T06:37:40;24.35;;;7.60;;
51374;SDS011;37465;52.738;4.752;2023-01-16T06:40:08;22.25;;;7.35;;
51374;SDS011;37465;52.738;4.752;2023-01-16T06:42:37;16.33;;;6.10;;
51374;SDS011;37465;52.738;4.752;2023-01-16T06:45:05;15.48;;;5.55;;
51374;SDS011;37465;52.738;4.752;2023-01-16T06:47:33;12.85;;;6.13;;
51374;SDS011;37465;52.738;4.752;2023-01-16T06:50:01;17.10;;;6.10;;
51374;SDS011;37465;52.738;4.752;2023-01-16T06:52:30;16.65;;;5.75;;
51374;SDS011;37465;52.738;4.752;2023-01-16T06:54:57;15.00;;;5.00;;
51374;SDS011;37465;52.738;4.752;2023-01-16T06:57:25;13.65;;;4.57;;
51374;SDS011;37465;52.738;4.752;2023-01-16T06:59:52;14.05;;;6.43;;
51374;SDS011;37465;52.738;4.752;2023-01-16T07:02:20;13.88;;;4.78;;
51374;SDS011;37465;52.738;4.752;2023-01-16T07:04:48;15.25;;;4.60;;
51374;SDS011;37465;52.738;4.752;2023-01-16T07:07:15;15.93;;;4.55;;
51374;SDS011;37465;52.738;4.752;2023-01-16T07:09:44;11.18;;;4.55;;
51374;SDS011;37465;52.738;4.752;2023-01-16T07:12:12;13.02;;;3.95;;
51374;SDS011;37465;52.738;4.752;2023-01-16T07:14:39;16.48;;;4.22;;
51374;SDS011;37465;52.738;4.752;2023-01-16T07:17:25;10.98;;;4.60;;
51374;SDS011;37465;52.738;4.752;2023-01-16T07:20:10;15.85;;;4.30;;
51374;SDS011;37465;52.738;4.752;2023-01-16T07:22:56;7.72;;;3.60;;
51374;SDS011;37465;52.738;4.752;2023-01-16T07:25:27;15.52;;;4.70;;
51374;SDS011;37465;52.738;4.752;2023-01-16T07:27:57;12.15;;;4.85;;
51374;SDS011;37465;52.738;4.752;2023-01-16T07:30:25;16.88;;;4.95;;
51374;SDS011;37465;52.738;4.752;2023-01-16T07:32:53;14.13;;;4.30;;
51374;SDS011;37465;52.738;4.752;2023-01-16T07:35:20;11.55;;;4.22;;
51374;SDS011;37465;52.738;4.752;2023-01-16T07:37:48;15.15;;;4.28;;
51374;SDS011;37465;52.738;4.752;2023-01-16T07:40:18;10.32;;;4.45;;
51374;SDS011;37465;52.738;4.752;2023-01-16T07:42:47;10.38;;;4.40;;
51374;SDS011;37465;52.738;4.752;2023-01-16T07:45:16;11.20;;;4.65;;
51374;SDS011;37465;52.738;4.752;2023-01-16T07:47:44;14.63;;;4.80;;
51374;SDS011;37465;52.738;4.752;2023-01-16T07:50:11;12.48;;;4.35;;
51374;SDS011;37465;52.738;4.752;2023-01-16T07:52:39;13.73;;;4.75;;
51374;SDS011;37465;52.738;4.752;2023-01-16T07:55:07;13.68;;;3.80;;
51374;SDS011;37465;52.738;4.752;2023-01-16T07:57:35;11.25;;;4.13;;
51374;SDS011;37465;52.738;4.752;2023-01-16T08:00:06;9.57;;;4.60;;
51374;SDS011;37465;52.738;4.752;2023-01-16T08:02:36;12.15;;;4.25;;
51374;SDS011;37465;52.738;4.752;2023-01-16T08:05:04;11.10;;;4.20;;
51374;SDS011;37465;52.738;4.752;2023-01-16T08:07:32;12.93;;;4.13;;
51374;SDS011;37465;52.738;4.752;2023-01-16T08:10:00;14.95;;;4.43;;
51374;SDS011;37465;52.738;4.752;2023-01-16T08:12:28;10.70;;;4.78;;
51374;SDS011;37465;52.738;4.752;2023-01-16T08:14:55;10.80;;;3.38;;
51374;SDS011;37465;52.738;4.752;2023-01-16T08:17:24;12.02;;;3.90;;
51374;SDS011;37465;52.738;4.752;2023-01-16T08:19:52;15.20;;;3.90;;
51374;SDS011;37465;52.738;4.752;2023-01-16T08:22:19;8.73;;;3.60;;
51374;SDS011;37465;52.738;4.752;2023-01-16T08:24:47;9.98;;;3.55;;
51374;SDS011;37465;52.738;4.752;2023-01-16T08:27:15;8.60;;;3.22;;
51374;SDS011;37465;52.738;4.752;2023-01-16T08:29:42;6.55;;;3.50;;
51374;SDS011;37465;52.738;4.752;2023-01-16T08:32:10;8.15;;;3.53;;
51374;SDS011;37465;52.738;4.752;2023-01-16T08:34:40;9.13;;;3.33;;
51374;SDS011;37465;52.738;4.752;2023-01-16T08:37:08;9.07;;;3.42;;
51374;SDS011;37465;52.738;4.752;2023-01-16T08:39:36;8.73;;;2.90;;
51374;SDS011;37465;52.738;4.752;2023-01-16T08:42:04;5.25;;;2.70;;
51374;SDS011;37465;52.738;4.752;2023-01-16T08:44:49;3.92;;;2.10;;
51374;SDS011;37465;52.738;4.752;2023-01-16T08:47:34;6.03;;;2.30;;
51374;SDS011;37465;52.738;4.752;2023-01-16T08:50:23;4.32;;;2.28;;
51374;SDS011;37465;52.738;4.752;2023-01-16T08:53:08;5.63;;;2.15;;
51374;SDS011;37465;52.738;4.752;2023-01-16T08:55:36;7.43;;;2.58;;
51374;SDS011;37465;52.738;4.752;2023-01-16T08:58:05;7.80;;;2.83;;
51374;SDS011;37465;52.738;4.752;2023-01-16T09:00:33;7.25;;;2.97;;
51374;SDS011;37465;52.738;4.752;2023-01-16T09:03:01;4.68;;;2.55;;
51374;SDS011;37465;52.738;4.752;2023-01-16T09:05:30;7.07;;;2.72;;
51374;SDS011;37465;52.738;4.752;2023-01-16T09:07:58;6.60;;;2.40;;
51374;SDS011;37465;52.738;4.752;2023-01-16T09:10:25;6.30;;;2.60;;
51374;SDS011;37465;52.738;4.752;2023-01-16T09:12:54;3.65;;;2.17;;
51374;SDS011;37465;52.738;4.752;2023-01-16T09:15:38;4.13;;;1.83;;
51374;SDS011;37465;52.738;4.752;2023-01-16T09:18:06;5.22;;;2.38;;
51374;SDS011;37465;52.738;4.752;2023-01-16T09:20:35;4.13;;;1.70;;
51374;SDS011;37465;52.738;4.752;2023-01-16T09:23:03;2.95;;;1.77;;
51374;SDS011;37465;52.738;4.752;2023-01-16T09:25:31;2.35;;;1.88;;
51374;SDS011;37465;52.738;4.752;2023-01-16T09:28:00;5.40;;;1.80;;
51374;SDS011;37465;52.738;4.752;2023-01-16T09:30:28;2.22;;;1.63;;
51374;SDS011;37465;52.738;4.752;2023-01-16T09:32:55;3.83;;;1.58;;
51374;SDS011;37465;52.738;4.752;2023-01-16T09:35:23;2.92;;;1.65;;
51374;SDS011;37465;52.738;4.752;2023-01-16T09:37:52;2.95;;;2.13;;
51374;SDS011;37465;52.738;4.752;2023-01-16T09:40:20;3.20;;;2.38;;
51374;SDS011;37465;52.738;4.752;2023-01-16T09:43:00;3.27;;;2.03;;
51374;SDS011;37465;52.738;4.752;2023-01-16T09:45:52;5.43;;;2.40;;
51374;SDS011;37465;52.738;4.752;2023-01-16T09:48:23;5.05;;;2.30;;
51374;SDS011;37465;52.738;4.752;2023-01-16T09:50:54;4.53;;;2.40;;
51374;SDS011;37465;52.738;4.752;2023-01-16T09:53:26;6.65;;;2.78;;
51374;SDS011;37465;52.738;4.752;2023-01-16T09:56:16;6.13;;;3.50;;
51374;SDS011;37465;52.738;4.752;2023-01-16T10:01:51;6.93;;;4.53;;
51374;SDS011;37465;52.738;4.752;2023-01-16T10:04:21;9.18;;;4.50;;
51374;SDS011;37465;52.738;4.752;2023-01-16T10:06:52;6.18;;;4.60;;
51374;SDS011;37465;52.738;4.752;2023-01-16T10:09:29;7.63;;;5.28;;
51374;SDS011;37465;52.738;4.752;2023-01-16T10:12:01;9.27;;;5.97;;
51374;SDS011;37465;52.738;4.752;2023-01-16T10:14:33;11.75;;;6.32;;
51374;SDS011;37465;52.738;4.752;2023-01-16T10:17:10;11.27;;;6.68;;
51374;SDS011;37465;52.738;4.752;2023-01-16T10:19:54;10.18;;;6.88;;
51374;SDS011;37465;52.738;4.752;2023-01-16T10:22:35;13.25;;;7.60;;
51374;SDS011;37465;52.738;4.752;2023-01-16T10:25:17;12.15;;;8.40;;
51374;SDS011;37465;52.738;4.752;2023-01-16T10:27:49;15.13;;;8.13;;
51374;SDS011;37465;52.738;4.752;2023-01-16T10:30:23;14.40;;;8.68;;
51374;SDS011;37465;52.738;4.752;2023-01-16T10:32:55;16.48;;;9.68;;
51374;SDS011;37465;52.738;4.752;2023-01-16T10:35:26;14.20;;;9.68;;
51374;SDS011;37465;52.738;4.752;2023-01-16T10:37:57;15.75;;;9.38;;
51374;SDS011;37465;52.738;4.752;2023-01-16T10:40:30;14.40;;;9.23;;
51374;SDS011;37465;52.738;4.752;2023-01-16T10:43:00;15.20;;;9.50;;
51374;SDS011;37465;52.738;4.752;2023-01-16T10:45:47;15.18;;;9.30;;
51374;SDS011;37465;52.738;4.752;2023-01-16T10:48:33;14.25;;;9.57;;
51374;SDS011;37465;52.738;4.752;2023-01-16T10:51:18;16.13;;;10.45;;
51374;SDS011;37465;52.738;4.752;2023-01-16T10:53:45;13.40;;;8.57;;
51374;SDS011;37465;52.738;4.752;2023-01-16T10:56:14;11.50;;;8.48;;
51374;SDS011;37465;52.738;4.752;2023-01-16T10:58:42;11.90;;;8.60;;
51374;SDS011;37465;52.738;4.752;2023-01-16T11:01:10;12.35;;;8.88;;
51374;SDS011;37465;52.738;4.752;2023-01-16T11:03:41;11.55;;;7.70;;
51374;SDS011;37465;52.738;4.752;2023-01-16T11:06:11;10.93;;;7.85;;
51374;SDS011;37465;52.738;4.752;2023-01-16T11:08:40;9.57;;;7.53;;
51374;SDS011;37465;52.738;4.752;2023-01-16T11:11:10;8.30;;;6.78;;
51374;SDS011;37465;52.738;4.752;2023-01-16T11:13:54;9.35;;;6.75;;
51374;SDS011;37465;52.738;4.752;2023-01-16T11:16:39;9.05;;;7.32;;
51374;SDS011;37465;52.738;4.752;2023-01-16T11:19:25;9.57;;;6.88;;
51374;SDS011;37465;52.738;4.752;2023-01-16T11:21:57;9.18;;;6.95;;
51374;SDS011;37465;52.738;4.752;2023-01-16T11:24:29;8.55;;;6.50;;
51374;SDS011;37465;52.738;4.752;2023-01-16T11:26:59;9.88;;;6.40;;
51374;SDS011;37465;52.738;4.752;2023-01-16T11:29:33;7.17;;;6.27;;
51374;SDS011;37465;52.738;4.752;2023-01-16T11:32:03;9.75;;;6.93;;
51374;SDS011;37465;52.738;4.752;2023-01-16T11:34:33;9.63;;;7.30;;
51374;SDS011;37465;52.738;4.752;2023-01-16T11:37:01;9.35;;;7.07;;
51374;SDS011;37465;52.738;4.752;2023-01-16T11:39:31;11.02;;;6.93;;
51374;SDS011;37465;52.738;4.752;2023-01-16T11:42:02;10.02;;;6.40;;
51374;SDS011;37465;52.738;4.752;2023-01-16T11:44:56;10.85;;;6.95;;
51374;SDS011;37465;52.738;4.752;2023-01-16T11:47:43;8.25;;;6.47;;
51374;SDS011;37465;52.738;4.752;2023-01-16T11:50:20;9.00;;;6.93;;
51374;SDS011;37465;52.738;4.752;2023-01-16T11:52:49;8.07;;;6.57;;
51374;SDS011;37465;52.738;4.752;2023-01-16T11:55:16;10.43;;;6.50;;
51374;SDS011;37465;52.738;4.752;2023-01-16T11:57:45;7.50;;;5.47;;
51374;SDS011;37465;52.738;4.752;2023-01-16T12:00:28;8.07;;;5.30;;
51374;SDS011;37465;52.738;4.752;2023-01-16T12:03:03;9.13;;;7.57;;
51374;SDS011;37465;52.738;4.752;2023-01-16T12:05:54;7.57;;;6.18;;
51374;SDS011;37465;52.738;4.752;2023-01-16T12:08:39;5.97;;;5.33;;
51374;SDS011;37465;52.738;4.752;2023-01-16T12:11:20;4.65;;;3.60;;
51374;SDS011;37465;52.738;4.752;2023-01-16T12:13:55;3.67;;;2.90;;
51374;SDS011;37465;52.738;4.752;2023-01-16T12:16:53;3.47;;;3.17;;
51374;SDS011;37465;52.738;4.752;2023-01-16T12:19:41;2.85;;;2.58;;
51374;SDS011;37465;52.738;4.752;2023-01-16T12:22:18;2.28;;;1.83;;
51374;SDS011;37465;52.738;4.752;2023-01-16T12:24:49;2.20;;;1.75;;
51374;SDS011;37465;52.738;4.752;2023-01-16T12:27:23;2.15;;;1.88;;
51374;SDS011;37465;52.738;4.752;2023-01-16T12:30:01;2.00;;;1.80;;
51374;SDS011;37465;52.738;4.752;2023-01-16T12:32:41;2.17;;;1.98;;
51374;SDS011;37465;52.738;4.752;2023-01-16T12:35:19;2.70;;;1.90;;
51374;SDS011;37465;52.738;4.752;2023-01-16T12:38:04;2.58;;;2.00;;
51374;SDS011;37465;52.738;4.752;2023-01-16T12:40:42;2.42;;;1.80;;
51374;SDS011;37465;52.738;4.752;2023-01-16T12:43:43;2.33;;;2.13;;
51374;SDS011;37465;52.738;4.752;2023-01-16T12:46:19;2.45;;;2.20;;
51374;SDS011;37465;52.738;4.752;2023-01-16T12:48:55;2.78;;;2.10;;
51374;SDS011;37465;52.738;4.752;2023-01-16T12:51:34;2.60;;;2.30;;
51374;SDS011;37465;52.738;4.752;2023-01-16T12:54:22;2.75;;;2.45;;
51374;SDS011;37465;52.738;4.752;2023-01-16T12:57:04;3.55;;;2.58;;
51374;SDS011;37465;52.738;4.752;2023-01-16T12:59:43;2.87;;;2.57;;
51374;SDS011;37465;52.738;4.752;2023-01-16T13:02:15;2.65;;;2.45;;
51374;SDS011;37465;52.738;4.752;2023-01-16T13:04:49;2.80;;;2.50;;
51374;SDS011;37465;52.738;4.752;2023-01-16T13:07:19;2.90;;;2.58;;
51374;SDS011;37465;52.738;4.752;2023-01-16T13:09:49;3.17;;;2.70;;
51374;SDS011;37465;52.738;4.752;2023-01-16T13:12:41;4.13;;;3.50;;
51374;SDS011;37465;52.738;4.752;2023-01-16T13:15:28;5.00;;;3.63;;
51374;SDS011;37465;52.738;4.752;2023-01-16T13:17:58;4.45;;;3.40;;
51374;SDS011;37465;52.738;4.752;2023-01-16T13:20:31;3.20;;;2.90;;
51374;SDS011;37465;52.738;4.752;2023-01-16T13:22:59;4.40;;;3.45;;
51374;SDS011;37465;52.738;4.752;2023-01-16T13:25:32;3.33;;;3.00;;
51374;SDS011;37465;52.738;4.752;2023-01-16T13:28:02;3.42;;;3.13;;
51374;SDS011;37465;52.738;4.752;2023-01-16T13:30:33;2.95;;;2.75;;
51374;SDS011;37465;52.738;4.752;2023-01-16T13:33:01;4.00;;;2.50;;
51374;SDS011;37465;52.738;4.752;2023-01-16T13:35:34;3.42;;;3.13;;
51374;SDS011;37465;52.738;4.752;2023-01-16T13:43:51;3.38;;;2.70;;
51374;SDS011;37465;52.738;4.752;2023-01-16T13:46:39;2.92;;;2.72;;
51374;SDS011;37465;52.738;4.752;2023-01-16T13:49:12;4.07;;;2.40;;
51374;SDS011;37465;52.738;4.752;2023-01-16T13:51:44;2.72;;;2.38;;
51374;SDS011;37465;52.738;4.752;2023-01-16T13:54:13;2.72;;;2.53;;
51374;SDS011;37465;52.738;4.752;2023-01-16T13:56:43;2.90;;;2.70;;
51374;SDS011;37465;52.738;4.752;2023-01-16T14:02:21;10.90;;;10.00;;
51374;SDS011;37465;52.738;4.752;2023-01-16T14:08:16;9.65;;;8.85;;
51374;SDS011;37465;52.738;4.752;2023-01-16T14:11:24;9.88;;;8.88;;
51374;SDS011;37465;52.738;4.752;2023-01-16T14:18:11;5.40;;;4.90;;
51374;SDS011;37465;52.738;4.752;2023-01-16T14:20:42;5.97;;;4.70;;
51374;SDS011;37465;52.738;4.752;2023-01-16T14:23:16;4.82;;;4.28;;
51374;SDS011;37465;52.738;4.752;2023-01-16T14:26:03;4.25;;;3.83;;
51374;SDS011;37465;52.738;4.752;2023-01-16T14:28:32;4.40;;;3.45;;
51374;SDS011;37465;52.738;4.752;2023-01-16T14:31:00;3.70;;;3.15;;
51374;SDS011;37465;52.738;4.752;2023-01-16T14:33:29;3.47;;;3.17;;
51374;SDS011;37465;52.738;4.752;2023-01-16T14:35:57;10.60;;;9.60;;
51374;SDS011;37465;52.738;4.752;2023-01-16T14:38:28;8.35;;;7.55;;
51374;SDS011;37465;52.738;4.752;2023-01-16T14:40:58;8.85;;;8.05;;
51374;SDS011;37465;52.738;4.752;2023-01-16T14:47:04;7.80;;;7.10;;
51374;SDS011;37465;52.738;4.752;2023-01-16T14:50:00;5.82;;;5.32;;
51374;SDS011;37465;52.738;4.752;2023-01-16T14:56:04;9.20;;;8.40;;
51374;SDS011;37465;52.738;4.752;2023-01-16T14:58:36;7.97;;;7.15;;
51374;SDS011;37465;52.738;4.752;2023-01-16T15:01:14;8.40;;;7.20;;
51374;SDS011;37465;52.738;4.752;2023-01-16T15:04:02;7.68;;;6.88;;
51374;SDS011;37465;52.738;4.752;2023-01-16T15:06:33;7.82;;;7.05;;
51374;SDS011;37465;52.738;4.752;2023-01-16T15:09:02;8.73;;;7.80;;
51374;SDS011;37465;52.738;4.752;2023-01-16T15:11:37;20.92;;;14.30;;
51374;SDS011;37465;52.738;4.752;2023-01-16T15:14:12;15.93;;;12.30;;
51374;SDS011;37465;52.738;4.752;2023-01-16T15:17:00;10.13;;;8.23;;
51374;SDS011;37465;52.738;4.752;2023-01-16T15:23:02;6.05;;;4.97;;
51374;SDS011;37465;52.738;4.752;2023-01-16T15:28:30;4.90;;;4.40;;
51374;SDS011;37465;52.738;4.752;2023-01-16T15:31:00;5.10;;;4.57;;
51374;SDS011;37465;52.738;4.752;2023-01-16T15:33:33;5.22;;;4.72;;
51374;SDS011;37465;52.738;4.752;2023-01-16T15:36:16;5.50;;;5.00;;
51374;SDS011;37465;52.738;4.752;2023-01-16T15:38:46;7.65;;;6.65;;
51374;SDS011;37465;52.738;4.752;2023-01-16T15:41:17;8.57;;;7.78;;
51374;SDS011;37465;52.738;4.752;2023-01-16T15:43:46;7.50;;;6.80;;
51374;SDS011;37465;52.738;4.752;2023-01-16T15:46:51;8.60;;;7.80;;